Time;durP1;ratioP1;P1;durP2;ratioP2;P2;SDS_P1;SDS_P2;PMS_P1;PMS_P2;Temp;Humidity;BMP_temperature;BMP_pressure;BME280_temperature;BME280_humidity;BME280_pressure;Samples;Min_cycle;Max_cycle;Signal;HPM_P1;HPM_P2
2022/04/14 00:01:13;;;;;;;29.70;15.35;;;9.90;99.90;;;;;;5030329;28;20025;-67
2022/04/14 00:03:41;;;;;;;34.72;15.40;;;9.90;99.90;;;;;;5015397;28;20088;-67
2022/04/14 00:06:07;;;;;;;33.78;16.38;;;9.90;99.90;;;;;;5033638;28;20037;-67
2022/04/14 00:08:33;;;;;;;28.00;15.13;;;9.80;99.90;;;;;;5033138;28;20167;-66
2022/04/14 00:10:59;;;;;;;32.65;15.90;;;9.80;99.90;;;;;;5032625;28;20021;-67
2022/04/14 00:13:24;;;;;;;34.90;15.68;;;9.70;99.90;;;;;;5033008;28;20064;-67
2022/04/14 00:15:50;;;;;;;30.83;13.77;;;9.60;99.90;;;;;;5033069;28;20026;-67
2022/04/14 00:18:16;;;;;;;35.03;15.52;;;9.50;99.90;;;;;;5032878;28;20037;-67
2022/04/14 00:21:14;;;;;;;31.23;14.40;;;9.60;99.90;;;;;;5251659;22;20016;-66
2022/04/14 00:23:40;;;;;;;29.50;14.45;;;9.50;99.90;;;;;;4981246;23;20045;-67
2022/04/14 00:26:05;;;;;;;31.85;14.00;;;9.40;99.90;;;;;;5072718;28;20047;-67
2022/04/14 00:28:31;;;;;;;31.20;15.05;;;9.40;99.90;;;;;;5072797;28;20046;-66
2022/04/14 00:30:59;;;;;;;27.48;14.05;;;9.40;99.90;;;;;;5073022;28;20024;-66
2022/04/14 00:33:26;;;;;;;29.85;14.13;;;9.40;99.90;;;;;;5072767;28;20070;-66
2022/04/14 00:35:52;;;;;;;32.17;14.20;;;9.30;99.90;;;;;;5072181;28;20020;-66
2022/04/14 00:38:18;;;;;;;32.08;14.23;;;9.30;99.90;;;;;;5055347;28;20495;-66
2022/04/14 00:40:44;;;;;;;34.30;13.77;;;9.40;99.90;;;;;;5052566;28;20075;-66
2022/04/14 00:43:09;;;;;;;30.25;14.07;;;9.30;99.90;;;;;;5052423;28;20726;-66
2022/04/14 00:45:35;;;;;;;23.52;12.05;;;9.40;99.90;;;;;;5052633;28;20039;-66
2022/04/14 00:48:01;;;;;;;27.27;12.90;;;9.40;99.90;;;;;;5052399;28;20415;-66
2022/04/14 00:50:27;;;;;;;30.30;13.40;;;9.30;99.90;;;;;;5052260;28;20426;-65
2022/04/14 00:52:54;;;;;;;30.60;14.07;;;9.20;99.90;;;;;;5051747;28;20471;-66
2022/04/14 00:55:19;;;;;;;37.80;14.18;;;9.20;99.90;;;;;;5062469;28;20549;-66
2022/04/14 00:57:45;;;;;;;31.63;13.23;;;9.20;99.90;;;;;;5072145;28;20111;-66
2022/04/14 01:00:11;;;;;;;25.80;12.63;;;9.20;99.90;;;;;;5072161;28;20019;-66
2022/04/14 01:02:37;;;;;;;28.50;11.63;;;9.30;99.90;;;;;;5069760;28;20033;-66
2022/04/14 01:05:04;;;;;;;33.92;14.55;;;9.30;99.90;;;;;;5068853;28;20028;-66
2022/04/14 01:07:33;;;;;;;25.75;12.20;;;9.30;99.90;;;;;;5070081;28;20483;-66
2022/04/14 01:10:00;;;;;;;25.42;11.43;;;9.30;99.90;;;;;;5072137;28;20478;-66
2022/04/14 01:12:27;;;;;;;25.73;12.50;;;9.20;99.90;;;;;;5071783;28;20037;-66
2022/04/14 01:14:52;;;;;;;27.45;13.13;;;9.20;99.90;;;;;;5058257;28;20028;-65
2022/04/14 01:17:18;;;;;;;30.77;12.30;;;9.20;99.90;;;;;;5051679;28;20021;-66
2022/04/14 01:19:43;;;;;;;27.80;12.98;;;9.20;99.90;;;;;;5051863;28;20195;-65
2022/04/14 01:22:30;;;;;;;27.45;11.50;;;9.10;99.90;;;;;;5051430;28;20044;-66
2022/04/14 01:24:57;;;;;;;22.63;11.15;;;9.10;99.90;;;;;;5051526;28;20426;-66
2022/04/14 01:27:25;;;;;;;28.98;12.63;;;9.00;99.90;;;;;;5051620;28;20052;-66
2022/04/14 01:29:53;;;;;;;22.13;10.00;;;9.00;99.90;;;;;;5051656;28;20037;-66
2022/04/14 01:32:20;;;;;;;15.88;8.15;;;8.90;99.90;;;;;;5033592;28;20021;-65
2022/04/14 01:34:46;;;;;;;12.35;6.18;;;8.60;99.90;;;;;;5051444;28;20036;-66
2022/04/14 01:37:12;;;;;;;10.60;6.45;;;8.40;99.90;;;;;;5051582;28;20032;-66
2022/04/14 01:39:39;;;;;;;12.10;5.55;;;8.10;99.90;;;;;;5033277;28;20025;-65
2022/04/14 01:42:05;;;;;;;9.95;5.43;;;7.90;99.90;;;;;;5051273;28;20047;-66
2022/04/14 01:44:31;;;;;;;9.20;5.38;;;7.70;99.90;;;;;;5051105;28;20336;-66
2022/04/14 01:46:57;;;;;;;10.82;5.30;;;7.60;99.90;;;;;;5050763;28;20109;-65
2022/04/14 01:49:23;;;;;;;16.05;7.20;;;7.40;99.90;;;;;;5056695;28;20063;-66
2022/04/14 01:51:48;;;;;;;15.82;6.53;;;7.40;99.90;;;;;;5067748;28;20032;-66
2022/04/14 01:54:14;;;;;;;13.48;6.20;;;7.40;99.90;;;;;;5067565;28;20124;-66
2022/04/14 01:56:41;;;;;;;10.65;6.13;;;7.30;99.90;;;;;;5067997;28;20402;-66
2022/04/14 01:59:08;;;;;;;15.32;6.78;;;7.20;99.90;;;;;;5067715;28;20021;-66
2022/04/14 02:01:33;;;;;;;14.32;8.05;;;7.10;99.90;;;;;;5067718;28;20028;-65
2022/04/14 02:04:01;;;;;;;19.90;8.80;;;7.10;99.90;;;;;;5068374;28;20028;-67
2022/04/14 02:06:27;;;;;;;16.73;8.25;;;7.20;99.90;;;;;;5071153;28;20031;-67
2022/04/14 02:08:53;;;;;;;20.75;8.85;;;7.20;99.90;;;;;;5070625;28;20032;-67
2022/04/14 02:11:18;;;;;;;18.27;8.65;;;7.20;99.90;;;;;;5070787;28;20086;-67
2022/04/14 02:13:44;;;;;;;16.30;7.60;;;7.20;99.90;;;;;;5070675;28;20103;-67
2022/04/14 02:16:10;;;;;;;17.88;8.88;;;7.20;99.90;;;;;;5070816;28;20043;-68
2022/04/14 02:18:35;;;;;;;23.58;9.55;;;7.30;99.90;;;;;;5070444;28;20423;-67
2022/04/14 02:21:01;;;;;;;24.70;10.55;;;7.30;99.90;;;;;;5068324;28;20021;-67
2022/04/14 02:23:27;;;;;;;18.55;8.68;;;7.40;99.90;;;;;;5066600;28;20048;-67
2022/04/14 02:25:53;;;;;;;19.95;9.30;;;7.40;99.90;;;;;;5066832;28;20040;-67
2022/04/14 02:28:19;;;;;;;26.05;8.73;;;7.30;99.90;;;;;;5065602;28;20036;-67
2022/04/14 02:30:46;;;;;;;16.45;8.02;;;7.30;99.90;;;;;;5068819;28;20019;-67
2022/04/14 02:33:12;;;;;;;23.45;10.57;;;7.30;99.90;;;;;;5070360;28;20029;-67
2022/04/14 02:35:37;;;;;;;28.35;10.52;;;7.20;99.90;;;;;;5070226;28;20150;-67
2022/04/14 02:38:03;;;;;;;26.95;12.38;;;7.20;99.90;;;;;;5069934;28;20028;-67
2022/04/14 02:40:29;;;;;;;32.88;11.93;;;7.20;99.90;;;;;;5070406;28;20043;-67
2022/04/14 02:42:56;;;;;;;38.13;12.63;;;7.20;99.90;;;;;;5070142;28;20402;-67
2022/04/14 02:45:23;;;;;;;25.52;11.80;;;7.20;99.90;;;;;;5070460;28;20217;-67
2022/04/14 02:47:49;;;;;;;25.80;12.95;;;7.20;99.90;;;;;;5069948;28;20082;-67
2022/04/14 02:50:15;;;;;;;26.20;12.30;;;7.20;99.90;;;;;;5070396;28;20024;-67
2022/04/14 02:52:41;;;;;;;23.23;11.75;;;7.10;99.90;;;;;;5069301;28;20039;-67
2022/04/14 02:55:08;;;;;;;22.02;11.85;;;7.10;99.90;;;;;;5069913;28;20427;-67
2022/04/14 02:57:34;;;;;;;19.90;10.13;;;7.00;99.90;;;;;;5070074;28;20071;-67
2022/04/14 03:00:00;;;;;;;28.63;10.60;;;6.90;99.90;;;;;;5070179;28;20039;-67
2022/04/14 03:02:25;;;;;;;30.88;10.68;;;6.80;99.90;;;;;;5069988;28;20028;-67
2022/04/14 03:04:51;;;;;;;23.00;9.73;;;6.70;99.90;;;;;;5070229;28;20131;-67
2022/04/14 03:07:17;;;;;;;21.63;10.38;;;6.70;99.90;;;;;;5069778;28;20024;-67
2022/04/14 03:09:42;;;;;;;22.58;10.20;;;6.70;99.90;;;;;;5069979;28;20025;-67
2022/04/14 03:12:09;;;;;;;22.25;10.38;;;6.70;99.90;;;;;;5069882;28;20104;-67
2022/04/14 03:14:35;;;;;;;20.83;10.93;;;6.80;99.90;;;;;;5052118;28;20025;-67
2022/04/14 03:17:00;;;;;;;22.42;11.05;;;6.90;99.90;;;;;;5058346;28;20503;-67
2022/04/14 03:19:26;;;;;;;22.63;10.45;;;6.90;99.90;;;;;;5049767;28;20037;-67
2022/04/14 03:21:51;;;;;;;21.30;11.05;;;6.90;99.90;;;;;;5049452;28;20487;-67
2022/04/14 03:24:17;;;;;;;23.88;11.90;;;6.90;99.90;;;;;;5049780;28;20032;-68
2022/04/14 03:26:43;;;;;;;24.67;10.68;;;7.00;99.90;;;;;;5031753;28;20383;-67
2022/04/14 03:29:08;;;;;;;31.33;11.57;;;7.20;99.90;;;;;;5049647;28;20072;-67
2022/04/14 03:31:34;;;;;;;39.05;13.95;;;7.40;99.90;;;;;;5049570;28;20387;-67
2022/04/14 03:34:00;;;;;;;50.22;17.83;;;7.60;99.90;;;;;;5049762;28;20479;-67
2022/04/14 03:36:26;;;;;;;49.72;18.38;;;7.80;99.90;;;;;;5054160;28;20121;-67
2022/04/14 03:38:51;;;;;;;59.53;17.27;;;8.20;99.90;;;;;;5064489;28;20035;-67
2022/04/14 03:41:17;;;;;;;50.60;18.08;;;8.40;99.90;;;;;;5073174;28;20017;-67
2022/04/14 03:43:42;;;;;;;48.45;17.60;;;8.60;99.90;;;;;;5073716;28;20372;-67
2022/04/14 03:46:08;;;;;;;56.47;17.63;;;8.70;99.90;;;;;;5073568;28;20024;-67
2022/04/14 03:48:34;;;;;;;59.08;18.17;;;8.80;99.90;;;;;;5073342;28;20040;-67
2022/04/14 03:51:00;;;;;;;52.17;14.95;;;8.90;99.90;;;;;;5073074;28;20395;-67
2022/04/14 03:53:26;;;;;;;60.78;17.08;;;8.90;99.90;;;;;;5053696;28;20379;-67
2022/04/14 03:55:52;;;;;;;65.30;17.38;;;9.00;99.90;;;;;;5053320;28;20017;-67
2022/04/14 03:58:18;;;;;;;63.03;17.23;;;9.10;99.90;;;;;;5053431;28;20025;-67
2022/04/14 04:00:44;;;;;;;76.75;17.75;;;9.10;99.90;;;;;;5053228;28;20108;-67
2022/04/14 04:03:11;;;;;;;70.13;16.05;;;9.20;99.90;;;;;;5053554;28;20035;-67
2022/04/14 04:05:37;;;;;;;66.78;15.90;;;9.20;99.90;;;;;;5053227;28;20029;-67
2022/04/14 04:08:05;;;;;;;45.03;13.95;;;9.20;99.90;;;;;;5053303;28;20041;-67
2022/04/14 04:10:30;;;;;;;58.05;15.05;;;9.30;99.90;;;;;;5053137;28;20471;-67
2022/04/14 04:12:56;;;;;;;71.38;15.10;;;9.30;99.90;;;;;;5053301;28;20078;-67
2022/04/14 04:15:22;;;;;;;56.88;13.68;;;9.30;99.90;;;;;;5052557;28;20566;-68
2022/04/14 04:17:51;;;;;;;54.78;14.30;;;9.30;99.90;;;;;;5049723;28;20029;-66
2022/04/14 04:20:17;;;;;;;51.92;13.15;;;9.40;99.90;;;;;;5049725;28;20057;-66
2022/04/14 04:22:43;;;;;;;77.45;15.63;;;9.40;99.90;;;;;;5065705;28;20079;-68
2022/04/14 04:25:09;;;;;;;34.10;12.23;;;9.40;99.90;;;;;;5072640;28;20064;-67
2022/04/14 04:27:36;;;;;;;24.65;9.77;;;9.40;99.90;;;;;;5072732;28;20089;-67
2022/04/14 04:30:03;;;;;;;23.38;9.82;;;9.20;99.90;;;;;;5072839;28;20135;-67
2022/04/14 04:32:31;;;;;;;25.85;9.63;;;8.90;99.90;;;;;;5069144;28;20386;-67
2022/04/14 04:34:56;;;;;;;23.35;9.88;;;8.70;99.90;;;;;;5069385;28;20028;-67
2022/04/14 04:37:22;;;;;;;28.00;9.40;;;8.50;99.90;;;;;;5071073;28;20056;-67
2022/04/14 04:39:48;;;;;;;27.17;10.55;;;8.30;99.90;;;;;;5072293;28;20009;-67
2022/04/14 04:42:13;;;;;;;27.17;10.05;;;8.10;99.90;;;;;;5072472;28;20020;-67
2022/04/14 04:44:39;;;;;;;26.75;11.00;;;8.00;99.90;;;;;;5071992;28;20074;-67
2022/04/14 04:47:05;;;;;;;24.42;10.35;;;7.80;99.90;;;;;;5071680;28;20020;-67
2022/04/14 04:49:31;;;;;;;26.90;10.07;;;7.70;99.90;;;;;;5072283;28;20471;-67
2022/04/14 04:51:57;;;;;;;24.63;9.63;;;7.70;99.90;;;;;;5065037;28;20036;-67
2022/04/14 04:54:22;;;;;;;23.42;10.00;;;7.60;99.90;;;;;;5052120;28;20166;-67
2022/04/14 04:56:48;;;;;;;26.38;10.25;;;7.50;99.90;;;;;;5052191;28;20032;-67
2022/04/14 04:59:13;;;;;;;34.22;11.13;;;7.40;99.90;;;;;;5051928;28;20116;-67
2022/04/14 05:01:39;;;;;;;24.58;10.10;;;7.40;99.90;;;;;;5050122;28;20039;-65
2022/04/14 05:04:05;;;;;;;22.67;9.88;;;7.40;99.90;;;;;;5048868;28;20426;-66
2022/04/14 05:06:30;;;;;;;28.38;9.85;;;7.40;99.90;;;;;;5049101;28;20033;-66
2022/04/14 05:08:56;;;;;;;27.70;10.38;;;7.30;99.90;;;;;;5051541;28;20041;-66
2022/04/14 05:11:21;;;;;;;44.30;12.20;;;7.30;99.90;;;;;;5052014;28;20056;-66
2022/04/14 05:13:47;;;;;;;43.47;12.18;;;7.30;99.90;;;;;;5052008;28;20444;-66
2022/04/14 05:16:13;;;;;;;31.40;11.60;;;7.20;99.90;;;;;;5051721;28;20040;-65
2022/04/14 05:18:39;;;;;;;45.22;12.82;;;7.20;99.90;;;;;;5051910;28;20028;-66
2022/04/14 05:21:04;;;;;;;38.10;11.70;;;7.20;99.90;;;;;;5052704;28;20017;-67
2022/04/14 05:23:30;;;;;;;44.10;11.77;;;7.20;99.90;;;;;;5047878;28;20076;-66
2022/04/14 05:25:56;;;;;;;46.45;14.05;;;7.20;99.90;;;;;;5049262;28;20056;-66
2022/04/14 05:28:22;;;;;;;33.58;13.10;;;7.20;99.90;;;;;;5051425;28;20080;-67
2022/04/14 05:30:47;;;;;;;45.83;13.02;;;7.30;99.90;;;;;;5051558;28;20021;-66
2022/04/14 05:33:13;;;;;;;34.20;11.80;;;7.30;99.90;;;;;;5051576;28;20104;-67
2022/04/14 05:35:39;;;;;;;47.97;13.25;;;7.30;99.90;;;;;;5051546;28;20159;-66
2022/04/14 05:38:06;;;;;;;38.80;11.68;;;7.30;99.90;;;;;;5051008;28;20028;-66
2022/04/14 05:40:32;;;;;;;42.30;11.25;;;7.30;99.90;;;;;;5051269;28;20025;-66
2022/04/14 05:42:57;;;;;;;43.35;12.20;;;7.30;99.90;;;;;;5051145;28;20029;-66
2022/04/14 05:45:23;;;;;;;48.40;13.43;;;7.30;99.90;;;;;;5051142;28;20020;-66
2022/04/14 05:47:49;;;;;;;53.08;13.27;;;7.30;99.90;;;;;;5048230;28;20513;-66
2022/04/14 05:50:15;;;;;;;43.30;13.75;;;7.30;99.90;;;;;;5047683;28;20479;-67
2022/04/14 05:52:41;;;;;;;40.22;11.95;;;7.30;99.90;;;;;;5049529;28;20021;-67
2022/04/14 05:55:07;;;;;;;34.10;11.50;;;7.40;99.90;;;;;;5051294;28;20029;-66
2022/04/14 05:57:33;;;;;;;37.50;12.27;;;7.30;99.90;;;;;;5050022;28;20076;-66
2022/04/14 05:59:59;;;;;;;35.03;12.38;;;7.40;99.90;;;;;;5051100;28;20049;-66
2022/04/14 06:02:25;;;;;;;39.88;12.40;;;7.40;99.90;;;;;;5050904;28;20037;-66
2022/04/14 06:04:51;;;;;;;32.25;11.95;;;7.50;99.90;;;;;;5050954;28;20025;-67
2022/04/14 06:07:16;;;;;;;40.30;11.77;;;7.50;99.90;;;;;;5050586;28;20507;-67
2022/04/14 06:09:43;;;;;;;35.13;13.20;;;7.60;99.90;;;;;;5050492;28;20086;-67
2022/04/14 06:12:09;;;;;;;21.30;10.00;;;7.60;99.90;;;;;;5048709;28;20056;-67
2022/04/14 06:14:35;;;;;;;38.17;10.93;;;7.60;99.90;;;;;;5047642;28;20052;-67
2022/04/14 06:17:01;;;;;;;30.25;11.05;;;7.50;99.90;;;;;;5048344;28;20110;-67
2022/04/14 06:19:27;;;;;;;31.35;10.88;;;7.50;99.90;;;;;;5050621;28;20167;-67
2022/04/14 06:21:52;;;;;;;23.88;10.02;;;7.60;99.90;;;;;;5048303;28;20116;-67
2022/04/14 06:24:18;;;;;;;28.75;11.38;;;7.60;99.90;;;;;;5047035;28;20032;-67
2022/04/14 06:26:44;;;;;;;18.35;8.20;;;7.70;99.90;;;;;;5047256;28;20061;-67
2022/04/14 06:29:09;;;;;;;18.85;8.38;;;7.80;99.90;;;;;;5048235;28;20068;-67
2022/04/14 06:31:35;;;;;;;20.38;9.23;;;7.70;99.90;;;;;;5050331;28;20404;-68
2022/04/14 06:34:05;;;;;;;32.00;11.30;;;7.80;99.90;;;;;;5050179;28;20094;-67
2022/04/14 06:36:31;;;;;;;22.38;10.18;;;7.90;99.90;;;;;;5048781;28;20021;-66
2022/04/14 06:38:57;;;;;;;25.08;10.00;;;8.00;99.90;;;;;;5046860;28;20482;-67
2022/04/14 06:41:23;;;;;;;32.95;10.85;;;8.20;99.90;;;;;;5047668;28;20039;-70
2022/04/14 06:43:49;;;;;;;19.13;8.45;;;8.40;99.90;;;;;;5050150;28;20037;-67
2022/04/14 06:46:18;;;;;;;19.50;7.75;;;8.60;99.90;;;;;;5049397;28;20443;-67
2022/04/14 06:48:44;;;;;;;19.58;7.45;;;8.80;99.90;;;;;;5046435;28;20075;-65
2022/04/14 06:51:13;;;;;;;16.70;7.40;;;9.10;99.90;;;;;;5047591;28;20100;-66
2022/04/14 06:53:39;;;;;;;19.52;7.75;;;9.40;99.90;;;;;;5055172;28;20020;-66
2022/04/14 06:56:05;;;;;;;14.02;7.47;;;9.60;99.90;;;;;;5069750;28;20100;-65
2022/04/14 06:58:31;;;;;;;13.60;6.78;;;9.70;99.90;;;;;;5070029;28;20135;-66
2022/04/14 07:00:56;;;;;;;10.95;5.97;;;9.80;99.90;;;;;;5069450;28;20100;-67
2022/04/14 07:03:26;;;;;;;22.13;7.65;;;10.00;99.90;;;;;;5067029;28;20429;-66
2022/04/14 07:05:54;;;;;;;11.38;7.13;;;10.00;99.90;;;;;;5067115;28;20575;-66
2022/04/14 07:08:21;;;;;;;15.13;6.75;;;10.10;99.90;;;;;;5068350;28;20066;-66
2022/04/14 07:10:47;;;;;;;11.82;6.40;;;9.90;99.90;;;;;;5069772;28;20013;-66
2022/04/14 07:13:12;;;;;;;15.07;6.28;;;9.90;99.90;;;;;;5069620;28;20047;-67
2022/04/14 07:15:38;;;;;;;12.48;5.43;;;10.10;99.90;;;;;;5069626;28;20032;-67
2022/04/14 07:18:04;;;;;;;11.95;5.95;;;10.40;99.90;;;;;;5069784;28;20021;-67
2022/04/14 07:20:30;;;;;;;16.48;6.22;;;10.20;99.90;;;;;;5069760;28;20103;-67
2022/04/14 07:22:58;;;;;;;14.52;6.30;;;10.20;99.90;;;;;;5054218;28;20049;-66
2022/04/14 07:25:24;;;;;;;8.85;6.15;;;10.40;99.90;;;;;;5049489;28;20517;-66
2022/04/14 07:27:50;;;;;;;14.45;8.40;;;10.30;99.90;;;;;;5052018;28;20033;-66
2022/04/14 07:30:16;;;;;;;10.20;6.70;;;10.40;99.90;;;;;;5049398;28;20032;-66
2022/04/14 07:32:43;;;;;;;18.70;7.68;;;10.90;99.90;;;;;;5049280;28;20031;-67
2022/04/14 07:35:09;;;;;;;10.07;6.68;;;10.90;99.90;;;;;;5049289;28;20033;-66
2022/04/14 07:37:38;;;;;;;12.35;5.97;;;10.90;99.90;;;;;;5049277;28;20107;-66
2022/04/14 07:40:05;;;;;;;12.43;6.75;;;11.30;99.90;;;;;;5049309;28;20082;-65
2022/04/14 07:42:39;;;;;;;14.02;5.38;;;11.50;99.90;;;;;;5049576;28;20498;-65
2022/04/14 07:45:06;;;;;;;11.63;5.88;;;11.90;99.90;;;;;;5049314;28;20487;-65
2022/04/14 07:47:32;;;;;;;19.02;5.78;;;11.90;99.90;;;;;;5049354;28;20062;-65
2022/04/14 07:49:57;;;;;;;11.05;5.70;;;11.90;99.90;;;;;;5049651;28;20031;-65
2022/04/14 07:52:23;;;;;;;13.40;5.72;;;11.50;99.90;;;;;;5049033;28;20406;-65
2022/04/14 07:54:49;;;;;;;15.65;7.78;;;11.00;99.90;;;;;;5049378;28;20033;-65
2022/04/14 07:57:15;;;;;;;12.10;7.45;;;10.80;99.90;;;;;;5049382;28;20035;-65
2022/04/14 07:59:40;;;;;;;15.63;8.23;;;10.70;99.90;;;;;;5049360;28;20043;-65
2022/04/14 08:02:07;;;;;;;17.20;10.20;;;10.80;99.90;;;;;;5049346;28;20104;-65
2022/04/14 08:04:32;;;;;;;14.77;7.93;;;10.80;99.90;;;;;;5049188;28;20029;-65
2022/04/14 08:06:58;;;;;;;13.82;8.90;;;11.00;99.90;;;;;;5049468;28;20020;-65
2022/04/14 08:09:24;;;;;;;17.88;9.93;;;11.40;99.90;;;;;;5048844;28;20033;-65
2022/04/14 08:11:50;;;;;;;18.70;9.77;;;12.30;99.90;;;;;;5049093;28;20029;-65
2022/04/14 08:14:16;;;;;;;14.68;8.45;;;12.90;99.90;;;;;;5049036;28;20094;-65
2022/04/14 08:16:41;;;;;;;17.08;9.95;;;13.00;99.90;;;;;;5049197;28;20499;-65
2022/04/14 08:19:07;;;;;;;20.15;10.85;;;13.30;99.90;;;;;;5049107;28;20146;-66
2022/04/14 08:21:32;;;;;;;17.30;9.45;;;13.20;99.90;;;;;;5050979;28;20150;-64
2022/04/14 08:23:58;;;;;;;16.05;9.27;;;13.80;99.90;;;;;;5050398;28;20394;-66
2022/04/14 08:26:26;;;;;;;14.35;8.35;;;13.90;99.90;;;;;;5048290;28;20450;-65
2022/04/14 08:28:53;;;;;;;12.05;7.65;;;14.20;99.90;;;;;;5066346;28;20122;-64
2022/04/14 08:31:21;;;;;;;17.17;10.02;;;13.60;99.90;;;;;;5071825;28;20032;-64
2022/04/14 08:33:48;;;;;;;16.27;9.55;;;13.40;99.90;;;;;;5076056;28;20482;-64
2022/04/14 08:36:17;;;;;;;19.40;10.10;;;13.30;99.90;;;;;;5092310;28;20043;-64
2022/04/14 08:38:45;;;;;;;15.10;8.88;;;13.40;99.90;;;;;;5074742;28;20057;-64
2022/04/14 08:41:13;;;;;;;15.85;9.73;;;13.60;99.90;;;;;;5092761;28;20051;-64
2022/04/14 08:43:49;;;;;;;13.57;8.68;;;14.40;99.90;;;;;;5092622;28;20042;-64
2022/04/14 08:46:18;;;;;;;17.73;9.30;;;15.40;99.90;;;;;;5087220;28;20032;-64
2022/04/14 08:48:46;;;;;;;14.60;9.52;;;18.20;99.90;;;;;;5060416;28;20520;-64
2022/04/14 08:51:14;;;;;;;15.90;9.13;;;20.00;90.20;;;;;;5068524;28;20382;-65
2022/04/14 08:53:41;;;;;;;14.05;9.02;;;21.00;81.00;;;;;;5048472;28;20020;-63
2022/04/14 08:56:07;;;;;;;15.90;8.65;;;20.30;80.10;;;;;;5050928;28;20436;-64
2022/04/14 08:58:34;;;;;;;12.05;7.25;;;20.50;80.90;;;;;;5068022;28;20028;-64
2022/04/14 09:01:00;;;;;;;16.27;8.95;;;22.30;72.60;;;;;;5051609;28;20024;-64
2022/04/14 09:03:28;;;;;;;13.52;8.07;;;22.60;60.40;;;;;;5068206;28;20039;-65
2022/04/14 09:05:55;;;;;;;13.93;7.97;;;24.10;54.70;;;;;;5067685;28;20028;-64
2022/04/14 09:08:24;;;;;;;11.68;7.93;;;22.90;52.80;;;;;;5070246;28;20056;-66
2022/04/14 09:10:50;;;;;;;11.00;8.05;;;23.30;51.20;;;;;;5071728;28;20052;-65
2022/04/14 09:13:17;;;;;;;12.88;7.00;;;23.10;48.50;;;;;;5072000;28;20032;-66
2022/04/14 09:15:42;;;;;;;10.77;7.00;;;22.70;51.00;;;;;;5071837;28;20024;-64
2022/04/14 09:18:08;;;;;;;10.57;6.70;;;22.70;51.90;;;;;;5068696;28;20027;-63
2022/04/14 09:20:41;;;;;;;13.88;6.65;;;23.20;49.70;;;;;;5068545;28;20124;-64
2022/04/14 09:23:13;;;;;;;10.98;6.70;;;25.30;46.90;;;;;;5067775;28;20089;-62
2022/04/14 09:25:39;;;;;;;9.25;5.93;;;25.30;37.50;;;;;;5048737;28;20059;-63
2022/04/14 09:28:23;;;;;;;10.70;5.95;;;25.70;35.80;;;;;;5049079;28;20448;-64
2022/04/14 09:31:10;;;;;;;7.85;5.50;;;25.80;35.10;;;;;;5051520;28;20071;-63
2022/04/14 09:33:43;;;;;;;11.32;6.25;;;26.50;33.60;;;;;;5051628;28;20021;-64
2022/04/14 09:36:20;;;;;;;12.77;6.32;;;25.70;32.60;;;;;;5051585;28;20064;-62
2022/04/14 09:39:00;;;;;;;6.40;5.07;;;25.00;35.50;;;;;;5051044;28;20128;-64
2022/04/14 09:41:39;;;;;;;9.55;5.63;;;27.40;32.40;;;;;;5049311;28;20027;-66
2022/04/14 09:44:10;;;;;;;10.02;5.82;;;26.80;29.10;;;;;;5048650;28;20120;-66
2022/04/14 09:46:38;;;;;;;11.02;5.25;;;26.40;29.10;;;;;;5049794;28;20408;-67
2022/04/14 09:49:08;;;;;;;8.40;5.57;;;27.90;28.70;;;;;;5051044;28;20041;-66
2022/04/14 09:51:41;;;;;;;8.32;5.20;;;29.20;25.90;;;;;;5051341;28;20024;-66
2022/04/14 09:54:15;;;;;;;9.70;5.18;;;29.60;24.20;;;;;;5050713;28;20033;-65
2022/04/14 09:56:45;;;;;;;10.25;5.45;;;29.10;23.80;;;;;;5051169;28;20029;-63
2022/04/14 09:59:13;;;;;;;10.95;4.75;;;28.30;24.50;;;;;;5051409;28;20033;-66
2022/04/14 10:01:40;;;;;;;11.82;5.03;;;29.00;25.10;;;;;;5051083;28;20029;-65
2022/04/14 10:04:06;;;;;;;10.30;4.95;;;28.80;23.10;;;;;;5051412;28;20025;-65
2022/04/14 10:06:32;;;;;;;9.20;4.18;;;28.70;24.40;;;;;;5051059;28;20217;-67
2022/04/14 10:08:57;;;;;;;6.70;3.70;;;29.20;24.10;;;;;;5050836;28;20395;-73
2022/04/14 10:11:29;;;;;;;7.03;3.58;;;30.80;22.40;;;;;;5051271;28;20025;-65
2022/04/14 10:14:10;;;;;;;5.38;3.03;;;32.60;19.70;;;;;;5051201;28;20025;-67
2022/04/14 10:16:37;;;;;;;4.20;2.10;;;30.40;17.90;;;;;;5050987;28;20037;-67
2022/04/14 10:19:03;;;;;;;6.40;2.72;;;32.30;18.20;;;;;;5050831;28;20025;-66
2022/04/14 10:21:30;;;;;;;3.75;2.13;;;32.30;15.60;;;;;;5050698;28;20078;-66
2022/04/14 10:23:56;;;;;;;8.38;2.88;;;32.90;17.70;;;;;;5048331;28;20063;-66
2022/04/14 10:26:22;;;;;;;4.82;2.20;;;33.00;15.90;;;;;;5047557;28;20096;-67
2022/04/14 10:28:49;;;;;;;3.63;1.88;;;33.40;18.40;;;;;;5049306;28;20128;-67
2022/04/14 10:31:19;;;;;;;2.95;1.58;;;34.20;15.50;;;;;;5051004;28;20055;-66
2022/04/14 10:33:45;;;;;;;5.82;2.22;;;35.70;14.30;;;;;;5050671;28;20090;-66
2022/04/14 10:36:11;;;;;;;2.90;0.82;;;36.40;13.70;;;;;;5050758;28;20491;-67
2022/04/14 10:38:40;;;;;;;2.90;0.90;;;36.10;12.60;;;;;;5050923;28;20068;-77
2022/04/14 10:41:13;;;;;;;3.03;1.40;;;34.50;11.20;;;;;;5051050;28;20028;-67
2022/04/14 10:43:46;;;;;;;2.78;0.82;;;34.40;13.50;;;;;;5050245;28;20029;-68
2022/04/14 10:46:16;;;;;;;7.00;1.48;;;34.00;12.40;;;;;;5050924;28;20056;-67
2022/04/14 10:48:44;;;;;;;1.95;1.30;;;34.10;12.00;;;;;;5050631;28;20486;-69
2022/04/14 10:51:29;;;;;;;3.05;1.20;;;34.10;12.50;;;;;;5051345;28;20095;-69
2022/04/14 10:54:06;;;;;;;2.88;0.80;;;34.20;10.90;;;;;;5070218;28;20118;-68
2022/04/14 10:56:38;;;;;;;0.90;0.45;;;34.80;10.80;;;;;;5070367;28;20393;-67
2022/04/14 10:59:09;;;;;;;3.10;0.65;;;35.30;9.80;;;;;;5069830;28;20472;-67
2022/04/14 11:01:47;;;;;;;4.30;0.98;;;35.90;9.60;;;;;;5070161;28;20479;-67
2022/04/14 11:04:50;;;;;;;2.35;0.70;;;32.60;11.70;;;;;;5070524;28;20044;-67
2022/04/14 11:07:17;;;;;;;1.92;0.50;;;29.80;15.30;;;;;;5070501;28;20035;-67
2022/04/14 11:09:52;;;;;;;1.40;0.40;;;31.50;14.20;;;;;;5070074;28;20036;-68
2022/04/14 11:12:19;;;;;;;5.03;0.60;;;31.40;13.20;;;;;;5070192;28;20025;-69
2022/04/14 11:14:52;;;;;;;1.92;0.50;;;33.70;11.50;;;;;;5070218;28;20061;-66
2022/04/14 11:17:42;;;;;;;0.50;0.20;;;35.90;10.70;;;;;;5055265;28;20109;-64
2022/04/14 11:20:15;;;;;;;3.08;0.30;;;35.80;9.40;;;;;;5032421;28;20063;-67
2022/04/14 11:23:02;;;;;;;0.82;0.30;;;32.80;9.70;;;;;;5048136;28;20048;-66
2022/04/14 11:25:42;;;;;;;1.60;0.40;;;34.20;9.70;;;;;;5046538;28;20032;-66
2022/04/14 11:28:27;;;;;;;1.45;0.40;;;35.80;10.10;;;;;;5046763;28;20068;-68
2022/04/14 11:31:00;;;;;;;0.35;0.20;;;37.40;8.00;;;;;;5047135;28;20037;-68
2022/04/14 11:33:32;;;;;;;0.65;0.43;;;37.00;8.20;;;;;;5046912;28;20505;-67
2022/04/14 11:36:08;;;;;;;0.38;0.15;;;34.60;7.90;;;;;;5046314;28;20040;-68
2022/04/14 11:38:53;;;;;;;0.22;0.20;;;35.30;8.80;;;;;;5046336;28;20037;-69
2022/04/14 11:41:46;;;;;;;0.40;0.20;;;32.70;9.50;;;;;;5046657;28;20111;-67
2022/04/14 11:44:17;;;;;;;0.98;0.20;;;32.70;9.40;;;;;;5040449;28;20041;-65
2022/04/14 11:46:44;;;;;;;0.85;0.38;;;31.40;11.00;;;;;;5046572;28;20074;-66
2022/04/14 11:49:12;;;;;;;1.90;0.28;;;33.10;11.10;;;;;;5046424;28;20341;-67
2022/04/14 11:51:43;;;;;;;1.63;0.20;;;32.80;9.70;;;;;;5046375;28;20154;-66
2022/04/14 11:54:10;;;;;;;2.75;0.70;;;33.60;11.30;;;;;;5045935;28;20025;-66
2022/04/14 11:56:35;;;;;;;0.75;0.52;;;30.20;12.20;;;;;;5048367;28;20791;-68
2022/04/14 11:59:02;;;;;;;1.05;0.30;;;30.50;11.20;;;;;;5050345;28;20033;-66
2022/04/14 12:01:28;;;;;;;1.05;0.22;;;30.80;13.70;;;;;;5050646;28;20035;-65
2022/04/14 12:03:54;;;;;;;0.85;0.40;;;34.50;11.70;;;;;;5050558;28;20041;-65
2022/04/14 12:06:19;;;;;;;0.63;0.32;;;34.90;10.90;;;;;;5049973;28;20017;-65
2022/04/14 12:08:56;;;;;;;0.82;0.13;;;35.50;9.30;;;;;;5049955;28;20064;-67
2022/04/14 12:11:24;;;;;;;1.25;0.20;;;36.00;8.00;;;;;;5049947;28;20021;-67
2022/04/14 12:13:50;;;;;;;0.95;0.30;;;36.70;8.30;;;;;;5049883;28;20029;-67
2022/04/14 12:16:16;;;;;;;2.20;0.45;;;35.70;8.80;;;;;;5049940;28;20083;-69
2022/04/14 12:18:51;;;;;;;1.85;0.50;;;36.80;7.80;;;;;;5049946;28;20044;-65
2022/04/14 12:21:22;;;;;;;0.40;0.30;;;35.60;7.60;;;;;;5051659;28;20024;-67
2022/04/14 12:23:49;;;;;;;2.10;0.40;;;35.10;8.30;;;;;;5069429;28;20053;-66
2022/04/14 12:26:16;;;;;;;1.38;0.22;;;35.00;8.40;;;;;;5069655;28;20024;-67
2022/04/14 12:28:42;;;;;;;0.50;0.30;;;35.10;8.90;;;;;;5069645;28;20024;-69
2022/04/14 12:31:11;;;;;;;0.88;0.30;;;35.30;8.90;;;;;;5069314;28;20115;-66
2022/04/14 12:33:37;;;;;;;0.68;0.20;;;34.40;8.70;;;;;;5066095;28;20097;-69
2022/04/14 12:36:09;;;;;;;0.95;0.25;;;33.80;9.50;;;;;;5069720;28;20071;-67
2022/04/14 12:38:55;;;;;;;1.08;0.47;;;35.60;9.40;;;;;;5069096;28;20037;-66
2022/04/14 12:41:22;;;;;;;0.30;0.30;;;34.40;9.50;;;;;;5068871;28;20033;-66
2022/04/14 12:43:49;;;;;;;1.05;0.30;;;36.50;9.30;;;;;;5069872;28;20094;-65